Time;durP1;ratioP1;P1;durP2;ratioP2;P2;SDS_P1;SDS_P2;PMS_P1;PMS_P2;Temp;Humidity;BMP_temperature;BMP_pressure;BME280_temperature;BME280_humidity;BME280_pressure;Samples;Min_cycle;Max_cycle;Signal;HPM_P1;HPM_P2
2023/12/18 00:00:05;;;;;;;5.20;2.17;;;;;;;-144.05;72.82;57031.50;5013968;28;20034;-84
2023/12/18 00:02:31;;;;;;;5.30;2.05;;;;;;;-144.05;72.19;57023.00;4996171;28;20029;-84
2023/12/18 00:04:58;;;;;;;5.55;1.77;;;;;;;-144.05;71.43;56999.63;4996084;28;20037;-84
2023/12/18 00:07:42;;;;;;;4.80;2.40;;;;;;;-144.05;71.42;57033.63;4995951;28;20125;-83
2023/12/18 00:10:11;;;;;;;6.22;2.22;;;;;;;-144.05;70.56;57044.25;5011876;28;20042;-84
2023/12/18 00:12:38;;;;;;;4.70;2.22;;;;;;;-144.05;70.45;57042.13;5000261;28;20030;-84
2023/12/18 00:15:06;;;;;;;7.20;2.38;;;;;;;-144.05;70.59;57042.13;4996063;28;20076;-84
2023/12/18 00:17:33;;;;;;;3.80;2.40;;;;;;;-144.05;70.15;57016.63;5010682;28;20029;-83
2023/12/18 00:19:59;;;;;;;4.72;2.30;;;;;;;-144.05;69.95;57056.97;5015788;28;20037;-84
2023/12/18 00:22:25;;;;;;;5.07;2.30;;;;;;;-144.05;69.78;57014.50;5015591;28;20037;-85
2023/12/18 00:24:51;;;;;;;3.80;2.00;;;;;;;-144.05;69.61;57046.38;5016679;28;20405;-86
2023/12/18 00:27:18;;;;;;;6.55;2.30;;;;;;;-144.05;70.32;57035.75;5030483;28;20113;-85
2023/12/18 00:29:44;;;;;;;6.78;2.33;;;;;;;-144.05;69.70;57048.50;5020708;28;20121;-84
2023/12/18 00:32:10;;;;;;;5.25;2.28;;;;;;;-144.05;69.55;57018.75;4996004;28;20111;-85
2023/12/18 00:34:40;;;;;;;7.72;2.83;;;;;;;-144.05;69.51;56982.66;5008136;28;20488;-84
2023/12/18 00:37:06;;;;;;;5.18;2.20;;;;;;;-144.05;69.25;57031.50;5014162;28;20047;-84
2023/12/18 00:39:32;;;;;;;6.13;2.45;;;;;;;-144.05;68.50;57016.63;5015493;28;20032;-83
2023/12/18 00:41:59;;;;;;;6.00;2.78;;;;;;;-144.05;68.64;57035.75;5022959;28;20077;-83
2023/12/18 00:44:25;;;;;;;4.68;2.40;;;;;;;-144.05;68.82;57052.75;5018869;28;20034;-83
2023/12/18 00:46:51;;;;;;;3.58;2.15;;;;;;;-144.05;69.19;57048.50;5024394;28;20033;-85
2023/12/18 00:49:19;;;;;;;7.10;2.75;;;;;;;-144.05;69.72;57027.25;5011831;28;20037;-83
2023/12/18 00:51:45;;;;;;;5.85;2.88;;;;;;;-144.05;69.11;57018.75;5016943;28;20022;-84
2023/12/18 00:54:11;;;;;;;4.97;2.65;;;;;;;-144.05;68.97;57029.38;4995269;28;20128;-84
2023/12/18 00:56:38;;;;;;;5.28;2.67;;;;;;;-144.05;68.49;57048.50;5002575;28;20037;-84
2023/12/18 00:59:04;;;;;;;5.75;2.78;;;;;;;-144.05;68.33;57044.25;5014895;28;20037;-83
2023/12/18 01:01:30;;;;;;;4.50;2.60;;;;;;;-144.05;68.35;57003.88;5031601;28;20033;-84
2023/12/18 01:03:56;;;;;;;7.40;2.88;;;;;;;-144.05;67.86;57029.38;5014870;28;20029;-85
2023/12/18 01:06:23;;;;;;;5.10;2.70;;;;;;;-144.05;68.49;57027.25;5031408;28;20128;-84
2023/12/18 01:08:49;;;;;;;5.22;2.75;;;;;;;-144.05;68.36;57048.50;5014759;28;20625;-83
2023/12/18 01:11:15;;;;;;;6.70;3.65;;;;;;;-144.05;68.57;57040.00;5031303;28;20515;-85
2023/12/18 01:13:41;;;;;;;8.40;3.35;;;;;;;-144.05;68.24;57042.13;5027849;28;20496;-83
2023/12/18 01:16:07;;;;;;;7.88;2.92;;;;;;;-144.05;68.24;57006.00;5011414;28;20503;-82
2023/12/18 01:18:34;;;;;;;10.23;3.28;;;;;;;-144.05;67.86;57010.25;5011070;28;20511;-83
2023/12/18 01:21:03;;;;;;;5.93;2.80;;;;;;;-144.05;67.66;57040.00;5012537;28;20050;-84
2023/12/18 01:23:30;;;;;;;9.90;3.03;;;;;;;-144.05;67.67;57029.38;5009269;28;20411;-83
2023/12/18 01:25:56;;;;;;;5.30;2.45;;;;;;;-144.05;67.91;57006.00;5022324;28;20025;-85
2023/12/18 01:28:22;;;;;;;8.55;3.42;;;;;;;-144.05;67.48;57067.59;5030597;28;20075;-82
2023/12/18 01:30:49;;;;;;;5.18;2.95;;;;;;;-144.05;67.91;57061.22;5027516;28;20033;-83
2023/12/18 01:33:15;;;;;;;8.38;3.15;;;;;;;-144.05;67.24;57029.38;5024413;28;20112;-82
2023/12/18 01:35:42;;;;;;;5.70;3.28;;;;;;;-144.05;67.27;57050.63;5014050;28;20479;-83
2023/12/18 01:38:09;;;;;;;9.80;2.78;;;;;;;-144.05;67.76;57052.75;5031781;28;20468;-83
2023/12/18 01:40:35;;;;;;;5.47;2.80;;;;;;;-144.05;67.42;57059.09;5010872;28;20044;-84
2023/12/18 01:43:01;;;;;;;9.43;3.15;;;;;;;-144.05;67.48;57029.38;5018309;28;20026;-84
2023/12/18 01:45:27;;;;;;;9.90;3.10;;;;;;;-144.05;67.40;57035.75;5012244;28;20498;-84
2023/12/18 01:47:55;;;;;;;6.10;2.97;;;6.70;99.90;;;-144.05;67.91;57027.25;5003892;28;20030;-84
2023/12/18 01:50:21;;;;;;;5.85;2.70;;;;;;;-144.05;68.18;57040.00;5030401;28;20120;-84
2023/12/18 01:52:48;;;;;;;9.10;3.45;;;;;;;-144.05;68.33;57061.22;5014047;28;20025;-83
2023/12/18 01:55:16;;;;;;;4.88;2.80;;;;;;;-144.05;68.80;56997.50;5013855;28;20101;-83
2023/12/18 01:57:42;;;;;;;9.05;3.35;;;;;;;-144.05;68.41;57046.38;5010698;28;20037;-83
2023/12/18 02:00:11;;;;;;;7.65;3.30;;;;;;;-144.05;68.56;57020.88;4994913;28;20072;-84
2023/12/18 02:02:38;;;;;;;7.30;3.17;;;;;;;-144.05;68.83;57020.88;5002813;28;20029;-85
2023/12/18 02:05:04;;;;;;;8.68;3.72;;;;;;;-144.05;69.36;57033.63;5008943;28;20053;-85
2023/12/18 02:07:33;;;;;;;16.13;4.15;;;;;;;-144.05;69.51;57063.34;5014496;28;20098;-83
2023/12/18 02:10:02;;;;;;;11.38;3.72;;;;;;;-144.05;69.39;57040.00;5015606;28;20038;-86
2023/12/18 02:12:28;;;;;;;6.53;3.40;;;;;;;-144.05;68.67;57031.50;5020195;28;20033;-85
2023/12/18 02:14:56;;;;;;;6.15;3.50;;;;;;;-144.05;68.05;57063.34;5016973;28;20033;-83
2023/12/18 02:17:22;;;;;;;11.27;3.83;;;;;;;-144.05;68.16;57050.63;5016509;28;20029;-87
2023/12/18 02:19:48;;;;;;;6.25;3.05;;;;;;;-144.05;67.74;57006.00;5014196;28;20455;-86
2023/12/18 02:22:14;;;;;;;9.20;4.05;;;;;;;-144.05;68.04;57027.25;5012867;28;20032;-83
2023/12/18 02:24:41;;;;;;;12.10;3.90;;;;;;;-144.05;67.71;57012.38;5005479;28;20113;-84
2023/12/18 02:27:07;;;;;;;10.13;4.07;;;;;;;-144.05;68.07;57052.75;4994595;28;20034;-83
2023/12/18 02:29:33;;;;;;;8.07;3.35;;;;;;;-144.05;67.79;57054.88;5011767;28;20034;-83
2023/12/18 02:32:00;;;;;;;12.18;4.07;;;6.40;99.90;;;-144.05;68.08;57056.97;5011918;28;20169;-82
2023/12/18 02:34:26;;;;;;;12.65;5.18;;;;;;;-144.05;69.34;57027.25;4999727;28;20057;-84
2023/12/18 02:36:53;;;;;;;10.30;5.30;;;;;;;-144.05;68.69;57071.84;5029869;28;20036;-83
2023/12/18 02:39:19;;;;;;;12.77;4.72;;;;;;;-144.05;69.41;57044.25;5031635;28;20029;-84
2023/12/18 02:41:45;;;;;;;14.95;5.65;;;;;;;-144.05;68.81;57042.13;5014035;28;20060;-82
2023/12/18 02:44:11;;;;;;;11.75;4.78;;;;;;;-144.05;68.52;57054.88;5013355;28;20037;-83
2023/12/18 02:46:38;;;;;;;14.18;5.40;;;;;;;-144.05;68.56;57078.22;5031240;28;20041;-82
2023/12/18 02:49:04;;;;;;;12.55;5.63;;;;;;;-144.05;68.57;57027.25;5010271;28;20030;-84
2023/12/18 02:51:31;;;;;;;14.50;5.35;;;;;;;-144.05;69.46;57052.75;5025727;28;20057;-84
2023/12/18 02:53:57;;;;;;;12.85;6.50;;;;;;;-144.05;69.16;57033.63;5013222;28;20034;-81
2023/12/18 02:56:25;;;;;;;13.18;5.97;;;;;;;-144.05;69.39;57048.50;5029692;28;20029;-81
2023/12/18 02:58:51;;;;;;;14.02;6.53;;;;;;;-144.05;69.61;57042.13;5014300;28;20021;-83
2023/12/18 03:01:18;;;;;;;12.23;5.65;;;;;;;-144.05;69.88;57042.13;5034609;28;20036;-83
2023/12/18 03:03:44;;;;;;;12.70;6.57;;;;;;;-144.05;70.51;57027.25;5018241;28;20100;-80
2023/12/18 03:06:10;;;;;;;17.15;6.53;;;;;;;-144.05;70.46;57065.47;5009383;28;20056;-85
2023/12/18 03:08:36;;;;;;;13.05;5.97;;;;;;;-144.05;70.34;57044.25;5028331;28;20104;-85
2023/12/18 03:11:03;;;;;;;17.10;6.80;;;;;;;-144.05;70.31;57065.47;5034733;28;20052;-83
2023/12/18 03:13:29;;;;;;;13.40;6.53;;;;;;;-144.05;70.27;57056.97;5034549;28;20040;-83
2023/12/18 03:15:57;;;;;;;19.45;7.60;;;;;;;-144.05;70.67;57027.25;5026567;28;20025;-82
2023/12/18 03:18:23;;;;;;;14.88;6.30;;;;;;;-144.05;70.89;57048.50;5016528;28;20026;-82
2023/12/18 03:20:50;;;;;;;16.35;6.55;;;;;;;-144.05;71.15;57029.38;5016420;28;20033;-83
2023/12/18 03:23:16;;;;;;;16.45;7.95;;;;;;;-144.05;71.33;57016.63;5016328;28;20022;-82
2023/12/18 03:25:42;;;;;;;17.85;6.85;;;;;;;-144.05;70.59;57078.22;5016526;28;20052;-82
2023/12/18 03:28:08;;;;;;;16.15;7.00;;;;;;;-144.05;71.06;57044.25;5016308;28;20428;-83
2023/12/18 03:30:34;;;;;;;15.27;6.90;;;;;;;-144.05;70.97;57061.22;5009641;28;20030;-83
2023/12/18 03:33:01;;;;;;;13.70;6.32;;;;;;;-144.05;70.79;57025.13;5030227;28;20377;-83
2023/12/18 03:35:27;;;;;;;12.40;7.03;;;;;;;-144.05;71.38;57027.25;5011010;28;20041;-83
2023/12/18 03:37:53;;;;;;;14.07;6.63;;;;;;;-144.05;71.77;57048.50;5034095;28;20434;-82
2023/12/18 03:40:19;;;;;;;14.70;7.47;;;;;;;-144.05;71.74;57067.59;5016484;28;20060;-85
2023/12/18 03:42:46;;;;;;;17.33;7.47;;;;;;;-144.05;72.04;57027.25;5029423;28;20088;-83
2023/12/18 03:45:12;;;;;;;17.13;6.68;;;;;;;-144.05;72.28;57023.00;5014781;28;20029;-85
2023/12/18 03:47:38;;;;;;;18.17;6.97;;;;;;;-144.05;72.19;57069.72;5012718;28;20033;-83
2023/12/18 03:50:05;;;;;;;20.23;7.75;;;;;;;-144.05;71.96;57065.47;5013177;28;20026;-82
2023/12/18 03:52:31;;;;;;;17.60;7.30;;;;;;;-144.05;72.55;57073.97;4999734;28;20041;-83
2023/12/18 03:54:59;;;;;;;15.18;8.05;;;;;;;-144.05;72.48;57031.50;5006704;28;20381;-83
2023/12/18 03:57:25;;;;;;;19.20;7.88;;;;;;;-144.05;72.80;57040.00;5028186;28;20050;-83
2023/12/18 03:59:51;;;;;;;17.08;8.27;;;;;;;-144.05;72.81;57035.75;5013523;28;20041;-83
2023/12/18 04:02:18;;;;;;;20.73;7.57;;;;;;;-144.05;72.49;57076.09;5021449;28;20112;-85
2023/12/18 04:04:44;;;;;;;15.93;7.03;;;5.40;99.90;;;-144.05;72.68;57061.22;5012506;28;20503;-84
2023/12/18 04:07:11;;;;;;;16.65;7.30;;;;;;;-144.05;72.98;57035.75;5021664;28;20057;-84
2023/12/18 04:09:40;;;;;;;15.68;8.18;;;;;;;-144.05;73.25;57027.25;5010844;28;20056;-81
2023/12/18 04:12:07;;;;;;;14.23;7.38;;;;;;;-144.05;73.07;57059.09;5031710;28;20076;-85
2023/12/18 04:14:33;;;;;;;19.20;7.15;;;;;;;-144.05;73.24;57067.59;5033495;28;20033;-83
2023/12/18 04:16:59;;;;;;;16.17;8.52;;;;;;;-144.05;73.29;57018.75;5041484;28;20032;-82
2023/12/18 04:19:25;;;;;;;21.63;8.43;;;;;;;-144.05;73.30;57052.75;5041548;28;20037;-82
2023/12/18 04:21:52;;;;;;;15.93;8.25;;;;;;;-144.05;73.24;57063.34;5017811;28;20032;-83
2023/12/18 04:24:18;;;;;;;15.55;8.15;;;;;;;-144.05;73.95;57063.34;5035215;28;20025;-83
2023/12/18 04:26:44;;;;;;;16.38;7.88;;;;;;;-144.05;74.16;57027.25;5014145;28;20036;-83
2023/12/18 04:29:10;;;;;;;20.40;8.27;;;;;;;-144.05;73.77;57052.75;4997924;28;20026;-85
2023/12/18 04:31:37;;;;;;;17.48;8.30;;;;;;;-144.05;73.40;57033.63;4998066;28;20049;-83
2023/12/18 04:34:03;;;;;;;22.05;8.70;;;;;;;-144.05;73.59;57031.50;5015899;28;20045;-84
2023/12/18 04:36:29;;;;;;;17.58;8.02;;;;;;;-144.05;73.91;57069.72;5029743;28;20033;-82
2023/12/18 04:38:55;;;;;;;22.02;8.15;;;;;;;-144.05;73.86;57095.22;5035386;28;20642;-82
2023/12/18 04:41:22;;;;;;;24.67;9.13;;;;;;;-144.05;74.12;57031.50;5013630;28;20054;-82
2023/12/18 04:43:49;;;;;;;23.70;8.98;;;;;;;-144.05;73.75;57027.25;5014074;28;20021;-82
2023/12/18 04:46:15;;;;;;;20.30;10.60;;;;;;;-144.05;74.04;57069.72;5030706;28;20053;-81
2023/12/18 04:48:42;;;;;;;18.50;8.10;;;;;;;-144.05;73.67;57044.25;5017113;28;20025;-84
2023/12/18 04:51:09;;;;;;;18.07;8.17;;;;;;;-144.05;73.22;57065.47;5034757;28;20025;-81
2023/12/18 04:53:35;;;;;;;22.23;9.30;;;;;;;-144.05;73.20;57050.63;5013491;28;20476;-84
2023/12/18 04:56:01;;;;;;;26.85;9.70;;;;;;;-144.05;73.87;57044.25;5014218;28;20510;-85
2023/12/18 04:58:27;;;;;;;20.40;8.43;;;;;;;-144.05;73.00;57014.50;5010372;28;20076;-83
2023/12/18 05:00:54;;;;;;;19.70;9.32;;;;;;;-144.05;72.77;57044.25;5012937;28;20034;-81
2023/12/18 05:03:20;;;;;;;22.15;8.63;;;;;;;-144.05;72.65;57054.88;4996751;28;20650;-85
2023/12/18 05:05:46;;;;;;;16.45;9.07;;;;;;;-144.05;72.31;57035.75;4997068;28;20034;-82
2023/12/18 05:08:12;;;;;;;20.10;9.25;;;;;;;-144.05;72.08;57063.34;5008899;28;20025;-81
2023/12/18 05:10:38;;;;;;;21.27;8.00;;;;;;;-144.05;72.30;57044.25;5013661;28;20143;-82
2023/12/18 05:13:05;;;;;;;17.65;7.93;;;;;;;-144.05;72.46;57014.50;5016935;28;20021;-80
2023/12/18 05:15:31;;;;;;;20.60;9.35;;;;;;;-144.05;72.51;57029.38;5033709;28;20041;-83
2023/12/18 05:17:57;;;;;;;21.48;9.05;;;;;;;-144.05;72.66;57042.13;5023984;28;20044;-83
2023/12/18 05:20:23;;;;;;;19.52;8.95;;;;;;;-144.05;72.53;57040.00;4997276;28;20026;-83
2023/12/18 05:22:50;;;;;;;19.70;10.20;;;;;;;-144.05;72.51;57061.22;5014360;28;20037;-84
2023/12/18 05:25:16;;;;;;;16.17;9.20;;;;;;;-144.05;72.56;57063.34;5029727;28;20053;-83
2023/12/18 05:27:42;;;;;;;20.55;9.88;;;;;;;-144.05;72.80;57050.63;5012961;28;20123;-82
2023/12/18 05:30:09;;;;;;;21.98;9.23;;;;;;;-144.05;72.71;57031.50;5004895;28;20076;-84
2023/12/18 05:32:35;;;;;;;23.17;10.57;;;;;;;-144.05;72.87;57046.38;5029180;28;20037;-81
2023/12/18 05:35:02;;;;;;;22.92;10.95;;;;;;;-144.05;73.52;57023.00;5013096;28;20026;-83
2023/12/18 05:37:28;;;;;;;23.67;10.90;;;;;;;-144.05;72.86;57069.72;5010880;28;20471;-84
2023/12/18 05:39:55;;;;;;;23.15;10.52;;;;;;;-144.05;73.51;57016.63;5017072;28;20033;-82
2023/12/18 05:42:21;;;;;;;19.42;10.85;;;;;;;-144.05;73.79;57033.63;5016916;28;20030;-81
2023/12/18 05:44:48;;;;;;;28.23;12.88;;;;;;;-144.05;74.03;57050.63;5017915;28;20435;-83
2023/12/18 05:47:14;;;;;;;23.02;10.93;;;;;;;-144.05;73.78;57061.22;5032345;28;20102;-85
2023/12/18 05:49:40;;;;;;;20.52;10.32;;;;;;;-144.05;74.10;57027.25;5016947;28;20025;-83
2023/12/18 05:52:06;;;;;;;19.58;11.13;;;;;;;-144.05;73.40;57025.13;5031310;28;20030;-84
2023/12/18 05:54:32;;;;;;;19.67;10.63;;;;;;;-144.05;73.49;57044.25;5014047;28;20030;-83
2023/12/18 05:56:59;;;;;;;26.85;11.63;;;;;;;-144.05;73.77;57054.88;5009483;28;20033;-85
2023/12/18 05:59:25;;;;;;;24.35;10.63;;;;;;;-144.05;74.12;57046.38;5018650;28;20052;-83
2023/12/18 06:01:51;;;;;;;22.10;10.98;;;;;;;-144.05;74.20;57035.75;5022606;28;20369;-83
2023/12/18 06:04:18;;;;;;;21.08;10.57;;;;;;;-144.05;74.11;57023.00;5003203;28;20033;-83
2023/12/18 06:06:44;;;;;;;26.38;12.32;;;;;;;-144.05;74.33;57052.75;5005730;28;20030;-84
2023/12/18 06:09:10;;;;;;;27.75;11.82;;;;;;;-144.05;74.49;57078.22;5005312;28;20040;-82
2023/12/18 06:11:36;;;;;;;27.55;12.30;;;;;;;-144.05;74.95;57073.97;5006516;28;20041;-84
2023/12/18 06:14:03;;;;;;;24.60;13.23;;;;;;;-144.05;74.14;57065.47;5038471;28;20037;-81
2023/12/18 06:16:29;;;;;;;24.27;11.30;;;;;;;-144.05;73.94;57067.59;5036490;28;20550;-82
2023/12/18 06:18:55;;;;;;;24.75;11.73;;;;;;;-144.05;73.88;57018.75;5031707;28;20026;-83
2023/12/18 06:21:22;;;;;;;26.05;11.23;;;;;;;-144.05;74.25;57061.22;5002485;28;20056;-83
2023/12/18 06:23:49;;;;;;;27.45;12.50;;;;;;;-144.05;74.55;57027.25;5012239;28;20081;-84
2023/12/18 06:26:15;;;;;;;31.35;13.52;;;;;;;-144.05;74.42;57059.09;5014064;28;20125;-85
2023/12/18 06:28:41;;;;;;;25.40;11.98;;;;;;;-144.05;74.84;57065.47;5021449;28;20099;-86
2023/12/18 06:31:08;;;;;;;24.70;12.55;;;;;;;-144.05;75.67;57084.59;5032839;28;20029;-86
2023/12/18 06:33:34;;;;;;;25.10;11.48;;;;;;;-144.05;75.56;57095.22;5018551;28;20034;-80
2023/12/18 06:36:00;;;;;;;24.65;12.93;;;;;;;-144.05;75.28;57054.88;5004309;28;20033;-81
2023/12/18 06:38:27;;;;;;;27.75;13.90;;;;;;;-144.05;75.35;57027.25;5009057;28;20434;-80
2023/12/18 06:40:54;;;;;;;24.73;15.02;;;;;;;-144.05;75.48;57056.97;5040442;28;20029;-82
2023/12/18 06:43:20;;;;;;;26.38;13.75;;;;;;;-144.05;75.81;57048.50;5019879;28;20052;-83
2023/12/18 06:45:46;;;;;;;24.65;11.60;;;;;;;-144.05;75.03;57056.97;5030644;28;20130;-83
2023/12/18 06:48:12;;;;;;;26.40;11.55;;;;;;;-144.05;74.68;57027.25;5044637;28;20021;-81
2023/12/18 06:50:39;;;;;;;26.45;13.48;;;;;;;-144.05;75.08;57046.38;5029053;28;20076;-81
2023/12/18 06:53:05;;;;;;;26.85;12.10;;;;;;;-144.05;75.30;57056.97;5020350;28;20100;-81
2023/12/18 06:55:33;;;;;;;25.17;12.27;;;;;;;-144.05;75.64;57044.25;5004958;28;20109;-83
2023/12/18 06:57:59;;;;;;;20.48;11.10;;;;;;;-144.05;75.87;57054.88;5002586;28;20026;-81
2023/12/18 07:00:25;;;;;;;25.77;12.40;;;;;;;-144.05;76.38;57063.34;5028123;28;20029;-83
2023/12/18 07:02:51;;;;;;;23.00;11.75;;;;;;;-144.05;76.19;57073.97;5020339;28;20570;-82
2023/12/18 07:05:18;;;;;;;21.60;12.88;;;;;;;-144.05;76.07;57069.72;5036980;28;20037;-85
2023/12/18 07:07:44;;;;;;;26.77;13.13;;;;;;;-144.05;75.63;57033.63;5019159;28;20185;-83
2023/12/18 07:10:10;;;;;;;30.80;15.48;;;;;;;-144.05;75.60;57008.13;5019881;28;20539;-84
2023/12/18 07:12:37;;;;;;;28.58;13.77;;;;;;;-144.05;75.33;57046.38;5016669;28;20101;-82
2023/12/18 07:15:03;;;;;;;26.25;12.50;;;;;;;-144.05;75.20;57044.25;5002356;28;20029;-82
2023/12/18 07:17:29;;;;;;;26.63;12.07;;;;;;;-144.05;75.75;57099.47;5000809;28;20444;-82
2023/12/18 07:19:56;;;;;;;23.15;11.93;;;;;;;-144.05;75.26;57020.88;5001006;28;20480;-83
2023/12/18 07:22:22;;;;;;;22.15;11.30;;;;;;;-144.05;75.53;57040.00;5007977;28;20084;-83
2023/12/18 07:24:48;;;;;;;24.98;12.55;;;;;;;-144.05;75.31;57048.50;5018035;28;20029;-83
2023/12/18 07:27:15;;;;;;;24.55;12.60;;;;;;;-144.05;75.55;57061.22;5017929;28;20042;-86
2023/12/18 07:29:42;;;;;;;25.70;12.65;;;;;;;-144.05;75.47;57018.75;5002339;28;20025;-84
2023/12/18 07:32:08;;;;;;;25.83;12.82;;;;;;;-144.05;75.20;57046.38;5016987;28;20026;-82
2023/12/18 07:34:34;;;;;;;22.45;11.82;;;;;;;-144.05;75.17;57052.75;5016537;28;20033;-83
2023/12/18 07:37:01;;;;;;;26.98;12.10;;;;;;;-144.05;75.16;57050.63;5015826;28;20029;-83
2023/12/18 07:39:27;;;;;;;22.15;12.68;;;;;;;-144.05;75.17;57001.75;5016954;28;20133;-85
2023/12/18 07:41:54;;;;;;;27.38;12.68;;;;;;;-144.05;75.46;57020.88;5016988;28;20473;-84
2023/12/18 07:44:20;;;;;;;25.65;12.35;;;;;;;-144.05;75.58;57040.00;5023157;28;20072;-82
2023/12/18 07:46:48;;;;;;;25.95;13.25;;;;;;;-144.05;75.26;57018.75;5039104;28;20029;-84
2023/12/18 07:49:15;;;;;;;24.58;12.10;;;;;;;-144.05;74.87;57054.88;5020976;28;20041;-84
2023/12/18 07:51:41;;;;;;;27.33;13.15;;;;;;;-144.05;74.78;57044.25;5018933;28;20472;-84
2023/12/18 07:54:07;;;;;;;25.38;11.88;;;;;;;-144.05;75.38;57076.09;5036679;28;20052;-83
2023/12/18 07:56:33;;;;;;;22.88;12.68;;;;;;;-144.05;75.36;57048.50;5003808;28;20033;-83
2023/12/18 07:59:00;;;;;;;31.13;14.05;;;;;;;-144.05;75.54;57059.09;4999221;28;20041;-84
2023/12/18 08:01:26;;;;;;;27.17;12.13;;;;;;;-144.05;75.67;57065.47;5009858;28;20029;-84
2023/12/18 08:03:53;;;;;;;29.13;14.73;;;;;;;-144.05;75.36;57035.75;4999396;28;20030;-86
2023/12/18 08:06:19;;;;;;;22.90;12.00;;;;;;;-144.05;75.50;57029.38;5020271;28;20056;-82
2023/12/18 08:08:45;;;;;;;24.23;12.88;;;;;;;-144.05;75.68;57078.22;5009043;28;20052;-83
2023/12/18 08:11:12;;;;;;;24.02;12.75;;;;;;;-144.05;75.62;57065.47;5038763;28;20075;-83
2023/12/18 08:13:38;;;;;;;21.00;11.73;;;;;;;-144.05;75.68;57054.88;5031608;28;20025;-82
2023/12/18 08:16:06;;;;;;;22.55;11.43;;;;;;;-144.05;75.86;57018.75;5026639;28;20053;-82
2023/12/18 08:18:33;;;;;;;21.38;11.35;;;;;;;-144.05;75.94;57050.63;5013649;28;20361;-83
2023/12/18 08:20:59;;;;;;;20.65;11.48;;;;;;;-144.05;76.59;57059.09;4998567;28;20029;-82
2023/12/18 08:23:27;;;;;;;22.15;11.65;;;;;;;-144.05;76.47;57046.38;5023383;28;20060;-84
2023/12/18 08:25:53;;;;;;;20.05;11.63;;;;;;;-144.05;75.58;57059.09;5015925;28;20030;-83
2023/12/18 08:28:21;;;;;;;23.73;12.57;;;;;;;-144.05;75.77;57031.50;4997507;28;20029;-82
2023/12/18 08:30:47;;;;;;;25.70;13.27;;;;;;;-144.05;75.98;57078.22;5015567;28;20033;-85
2023/12/18 08:33:13;;;;;;;27.10;13.05;;;;;;;-144.05;76.29;57048.50;4997582;28;20034;-84
2023/12/18 08:35:40;;;;;;;25.98;13.00;;;;;;;-144.05;76.63;57046.38;5029910;28;20026;-82
2023/12/18 08:38:06;;;;;;;28.55;14.27;;;;;;;-144.05;76.64;57040.00;5016527;28;20372;-83
2023/12/18 08:40:32;;;;;;;24.73;12.98;;;;;;;-144.05;76.30;57042.13;5017038;28;20120;-84
2023/12/18 08:42:58;;;;;;;26.70;13.45;;;;;;;-144.05;76.87;57040.00;5017663;28;20029;-86
2023/12/18 08:45:25;;;;;;;24.35;12.90;;;;;;;-144.05;77.31;57044.25;5019132;28;20035;-86
2023/12/18 08:47:51;;;;;;;24.45;12.20;;;;;;;-144.05;76.94;57033.63;5023386;28;20087;-82
2023/12/18 08:50:17;;;;;;;21.83;11.77;;;;;;;-144.05;77.35;57063.34;5017444;28;20046;-82
2023/12/18 08:52:43;;;;;;;25.13;12.15;;;;;;;-144.05;76.77;57071.84;5033392;28;20121;-83
2023/12/18 08:55:10;;;;;;;28.10;12.40;;;;;;;-144.05;76.96;57080.34;5019531;28;20382;-81
2023/12/18 08:57:36;;;;;;;24.05;12.07;;;;;;;-144.05;77.33;57076.09;5014925;28;20050;-85
2023/12/18 09:00:06;;;;;;;23.92;12.95;;;;;;;-144.05;77.01;57061.22;5007408;28;20033;-83
2023/12/18 09:02:32;;;;;;;25.40;12.82;;;;;;;-144.05;77.29;57033.63;5014612;28;20220;-83
2023/12/18 09:04:58;;;;;;;25.13;12.10;;;;;;;-144.05;76.85;57027.25;4999147;28;20079;-84
2023/12/18 09:07:25;;;;;;;23.83;12.40;;;;;;;-144.05;76.97;57063.34;5018099;28;20025;-83
2023/12/18 09:09:51;;;;;;;25.08;13.07;;;;;;;-144.05;76.61;57044.25;5036773;28;20029;-85
2023/12/18 09:12:17;;;;;;;24.48;12.80;;;;;;;-144.05;77.04;57035.75;5036362;28;20041;-83
2023/12/18 09:14:44;;;;;;;26.40;12.23;;;;;;;-144.05;76.30;57078.22;5033172;28;20500;-83
2023/12/18 09:17:10;;;;;;;21.98;12.93;;;;;;;-144.05;76.91;57040.00;5016173;28;20048;-83
2023/12/18 09:19:36;;;;;;;22.63;11.80;;;;;;;-144.05;77.91;57044.25;5032197;28;20033;-84
2023/12/18 09:22:03;;;;;;;25.67;13.32;;;;;;;-144.05;77.00;57048.50;5016682;28;20025;-84
2023/12/18 09:24:30;;;;;;;28.10;13.27;;;;;;;-144.05;77.24;57048.50;5015872;28;20079;-85
2023/12/18 09:26:57;;;;;;;22.73;12.10;;;;;;;-144.05;76.99;57065.47;5024852;28;20029;-82
2023/12/18 09:29:24;;;;;;;23.77;11.25;;;;;;;-144.05;77.43;57023.00;5009815;28;20481;-84
2023/12/18 09:31:50;;;;;;;20.42;11.98;;;;;;;-144.05;77.01;57067.59;5012575;28;20041;-84
2023/12/18 09:34:17;;;;;;;21.40;10.48;;;;;;;-144.05;77.25;57018.75;5028281;28;20030;-82
2023/12/18 09:36:43;;;;;;;28.98;11.80;;;;;;;-144.05;77.38;57001.75;5011711;28;20048;-85
2023/12/18 09:39:10;;;;;;;25.55;11.93;;;;;;;-144.05;77.22;57046.38;5020631;28;20053;-84
2023/12/18 09:41:37;;;;;;;20.83;9.75;;;;;;;-144.05;77.24;57059.09;5020849;28;20036;-81
2023/12/18 09:44:04;;;;;;;16.45;10.02;;;;;;;-144.05;77.51;57065.47;5007773;28;20025;-81
2023/12/18 09:46:30;;;;;;;20.88;11.07;;;;;;;-144.05;77.81;57044.25;5012847;28;20345;-82
2023/12/18 09:48:57;;;;;;;20.75;10.93;;;;;;;-144.05;77.69;57042.13;5029276;28;20112;-83
2023/12/18 09:51:26;;;;;;;22.08;11.18;;;;;;;-144.05;77.17;57052.75;5015791;28;20044;-85
2023/12/18 09:53:53;;;;;;;20.20;10.15;;;;;;;-144.05;77.36;57027.25;5013949;28;20030;-86
2023/12/18 09:56:24;;;;;;;19.67;9.43;;;6.40;99.90;;;-144.05;77.11;57042.13;5014870;28;20021;-79
2023/12/18 09:58:54;;;;;;;18.13;9.95;;;;;;;-144.05;77.19;57029.38;5036428;28;20080;-79
2023/12/18 10:01:22;;;;;;;21.30;10.38;;;;;;;-144.05;76.81;57035.75;5003792;28;20111;-82
2023/12/18 10:03:48;;;;;;;20.33;9.45;;;;;;;-144.05;76.65;57061.22;5014987;28;20128;-83
2023/12/18 10:06:15;;;;;;;18.98;9.80;;;;;;;-144.05;76.54;57040.00;5033053;28;20029;-84
2023/12/18 10:08:41;;;;;;;18.42;10.38;;;;;;;-144.05;76.17;57018.75;5014719;28;20038;-82
2023/12/18 10:11:25;;;;;;;17.85;10.85;;;;;;;-144.05;76.17;57052.75;5004338;28;20076;-84
2023/12/18 10:13:53;;;;;;;19.38;9.85;;;;;;;-144.05;76.01;57029.38;5026372;28;20444;-85
2023/12/18 10:16:22;;;;;;;20.80;9.50;;;;;;;-144.05;76.08;57061.22;4995837;28;20057;-84
2023/12/18 10:18:50;;;;;;;15.43;8.80;;;;;;;-144.05;76.01;57042.13;5012292;28;20116;-85
2023/12/18 10:21:25;;;;;;;17.58;10.07;;;;;;;-144.05;76.48;57052.75;5011576;28;20034;-84
2023/12/18 10:23:55;;;;;;;19.35;9.07;;;;;;;-144.05;76.66;57052.75;4994739;28;20029;-83
2023/12/18 10:26:22;;;;;;;17.20;10.02;;;;;;;-144.05;76.59;57048.50;4995092;28;20081;-84
2023/12/18 10:28:51;;;;;;;16.88;9.32;;;;;;;-144.05;76.92;57031.50;5012622;28;20068;-84
2023/12/18 10:31:18;;;;;;;17.52;9.48;;;;;;;-144.05;76.49;57012.38;5007526;28;20083;-83
2023/12/18 10:33:45;;;;;;;18.17;10.27;;;;;;;-144.05;76.60;57054.88;5015616;28;20083;-84
2023/12/18 10:36:15;;;;;;;17.83;8.85;;;;;;;-144.05;76.56;57046.38;5028266;28;20029;-82
2023/12/18 10:38:49;;;;;;;18.05;9.68;;;;;;;-144.05;76.27;57031.50;4995491;28;20037;-82
2023/12/18 10:41:21;;;;;;;19.20;8.35;;;;;;;-144.05;76.64;57050.63;5007602;28;20032;-87
2023/12/18 10:43:50;;;;;;;16.70;8.77;;;;;;;-144.05;76.69;57014.50;5014097;28;20014;-88
2023/12/18 10:46:17;;;;;;;16.42;9.43;;;;;;;-144.05;77.02;57052.75;5051667;28;20033;-84
2023/12/18 10:48:49;;;;;;;14.10;8.55;;;;;;;-144.05;76.84;57025.13;5029063;28;20037;-85
2023/12/18 10:51:20;;;;;;;16.88;9.27;;;;;;;-144.05;76.97;57046.38;5036059;28;20029;-87
2023/12/18 10:53:49;;;;;;;17.45;9.25;;;;;;;-144.05;76.72;57046.38;5016994;28;20495;-84
2023/12/18 10:56:19;;;;;;;17.58;9.60;;;;;;;-144.05;77.19;57018.75;5015731;28;20059;-84
2023/12/18 10:58:49;;;;;;;17.58;9.23;;;;;;;-144.05;76.88;57044.25;5014617;28;20061;-83
2023/12/18 11:01:19;;;;;;;17.52;9.02;;;;;;;-144.05;77.38;57071.84;5012717;28;20030;-84
2023/12/18 11:03:47;;;;;;;17.77;9.60;;;;;;;-144.05;77.02;57052.75;5021404;28;20025;-84